AirNav   TITAN Aviation Fuels
 
 956 users online  

1CD0 Murphy Heliport
Longmont, Colorado, USA

GOING TO LONGMONT?


FAA INFORMATION EFFECTIVE 08 SEPTEMBER 2022

Location

FAA Identifier: 1CD0
Lat/Long: 40-08-34.0000N 105-00-10.0000W
40-08.566667N 105-00.166667W
40.1427778,-105.0027778
(estimated)
Elevation: 4870 ft. / 1484 m (estimated)
From city: 4 miles E of LONGMONT, CO
Time zone: UTC -6 (UTC -7 during Standard Time)
Zip code: 80504

Heliport Operations

Heliport use: Private use. Permission required prior to landing
Activation date: 05/2006
Control tower: no
ARTCC: DENVER CENTER
FSS: DENVER FLIGHT SERVICE STATION
Attendance: UNATNDD
Segmented circle: no

Heliport Communications

WX AWOS-3 at LMO (7 nm W): 120.0 (303-684-7545)
WX AWOS-3 at EIK (8 nm S): 133.825 (303-604-4339)
WX AWOS-3 at BDU (12 nm SW): 118.825 (303-541-9540)
WX AWOS-3 at BJC (15 nm S): PHONE 720-887-8067
WX AWOS-3PT at FNL (19 nm N): 135.075 (970-669-9187)

Nearby radio navigation aids

VOR radial/distance  VOR name  Freq  Var
BJCr013/15.1JEFFCO VOR/DME115.4011E
DVVr303/22.9MILE HIGH VORTAC114.7008E
DENr314/25.3DENVER VOR/DME117.9008E
GLLr211/29.9GILL VOR/DME114.2013E
FQFr316/32.3FALCON VORTAC116.3011E

Heliport Services

Runway Information

Helipad H1

Dimensions: 14 x 14 ft. / 4 x 4 m
Surface: concrete, in good condition
Traffic pattern: leftleft

Heliport Ownership and Management from official FAA records

Ownership: Privately-owned
Owner: WILLIAM R. MURPHY
9933 SHORELINE DR.
LONGMONT, CO 80504
Phone 303-550-1243
Manager: WILLIAM R. MURPHY
9933 SHORELINE DR.
LONGMONT, CO 80504
Phone (408) 438-8885

Heliport Operational Statistics

Aircraft based on the field: 1
Helicopters: 1
    

Additional Remarks

35 FT BLDG 47 FT NORTHWEST OF HELIPAD.
FOR CD CTC DENVER APCH AT 303-342-1916.

Instrument Procedures

There are no published instrument procedures at 1CD0.

Some nearby airports with instrument procedures:

KLMO - Vance Brand Airport (7 nm W)
KEIK - Erie Municipal Airport (8 nm S)
KBJC - Rocky Mountain Metro Airport (15 nm S)
KFNL - Northern Colorado Regional Airport (19 nm N)
KDEN - Denver International Airport (23 nm SE)
 
Loc | Ops | Rwys | IFR | FBO | Links
Com | Nav | Svcs | Stats | Notes

AirBoss

 
Area around 1CD0 (Murphy Heliport)
 
Road maps at: MapQuest Bing Google
 
Aerial photo
No photo
 
Sectional chart

 
Airport distance calculator
Flying to Murphy Heliport? Find the distance to fly.

From to 1CD0

Sunrise and sunset
Times for 24-Sep-2022
 Local
(UTC-6)
 Zulu
(UTC)
Morning civil twilight06:2312:23
Sunrise06:5112:51
Sunset18:5400:54
Evening civil twilight19:2101:21

Current date and time
Zulu (UTC)  25-Sep-2022 00:03:11
Local (UTC-6)  24-Sep-2022 18:03:11
 
METAR
KLMO 
7nm W 
242335Z AUTO 00000KT 10SM CLR 27/M02 A3018 RMK AO2 T02731022
KEIK 
8nm S 
242355Z AUTO 09006KT 10SM CLR 27/M05 A3017 RMK AO2 T02651050 10279 20240 PWINO
K1V5 
12nm SW 
AWOS 118.825 303-541-9540
No observation available
KBDU 
12nm SW 
242355Z AUTO 01003KT 10SM CLR 25/00 A3018 RMK AO2
KBJC 
15nm S 
242348Z 04007KT 10SM SKC 26/M03 A3021
KFNL 
18nm N 
242356Z 16004KT 10SM CLR 26/00 A3018 RMK AO2 SLP174 T02610000 10278 20233 53001
TAF
KBJC 
15nm S 
241740Z 2418/2518 VRB03KT P6SM SKC FM241900 07007KT P6SM SKC FM250500 35005KT P6SM SKC
NOTAMs
Click for the latest NOTAMs
NOTAMs are issued by the DoD/FAA and will open in a separate window not controlled by AirNav.

 

 
 

Would you like to see your business listed on this page?

 If your business provides an interesting product or service to pilots, flight crews, aircraft, or users of the Murphy Heliport, you should consider listing it here.  To start the listing process, click on the button below
 
Add a business
 

Other Pages about Murphy Heliport

Update a link
 
Copyright © AirNav, LLC. All rights reserved. Privacy Policy  Contact